createdAt,value
2018-04-11T00:02:27.747Z,84.19
2018-04-11T00:04:56.368Z,84.01
2018-04-11T00:07:25.012Z,84.29
2018-04-11T00:12:48.804Z,84.97
2018-04-11T00:15:21.789Z,85.08
2018-04-11T00:17:52.257Z,84.76
2018-04-11T00:20:22.695Z,84.87
2018-04-11T00:22:53.164Z,85.00
2018-04-11T00:25:24.472Z,85.00
2018-04-11T00:27:54.949Z,84.95
2018-04-11T00:30:25.262Z,84.71
2018-04-11T00:32:56.197Z,85.01
2018-04-11T00:35:27.955Z,85.02
2018-04-11T00:38:08.894Z,85.12
2018-04-11T00:40:39.517Z,85.15
2018-04-11T00:43:13.937Z,85.34
2018-04-11T00:45:44.454Z,85.26
2018-04-11T00:48:14.986Z,85.06
2018-04-11T00:50:46.014Z,85.22
2018-04-11T00:53:24.737Z,84.87
2018-04-11T00:55:55.077Z,85.28
2018-04-11T00:58:27.172Z,85.14
2018-04-11T01:00:57.895Z,85.09
2018-04-11T01:03:28.343Z,85.31
2018-04-11T01:05:58.774Z,84.94
2018-04-11T01:08:29.714Z,85.00
2018-04-11T01:11:00.234Z,85.37
2018-04-11T01:13:32.334Z,85.35
2018-04-11T01:16:02.841Z,85.20
2018-04-11T01:18:33.337Z,85.26
2018-04-11T01:21:04.423Z,85.18
2018-04-11T01:23:37.475Z,85.06
2018-04-11T01:26:08.394Z,85.23
2018-04-11T01:28:39.098Z,85.34
2018-04-11T01:31:10.598Z,85.24
2018-04-11T01:33:41.830Z,85.03
2018-04-11T01:36:12.262Z,85.02
2018-04-11T01:38:42.805Z,85.03
2018-04-11T01:41:13.909Z,84.85
2018-04-11T01:43:51.593Z,85.01
2018-04-11T01:46:22.413Z,84.90
2018-04-11T01:48:52.929Z,85.08
2018-04-11T01:51:24.773Z,85.08
2018-04-11T01:53:55.378Z,85.19
2018-04-11T01:56:25.897Z,85.15
2018-04-11T01:58:56.437Z,85.31
2018-04-11T02:01:31.227Z,85.64
2018-04-11T02:04:01.825Z,85.42
2018-04-11T02:06:32.296Z,85.34
2018-04-11T02:09:02.876Z,85.41
2018-04-11T02:11:34.247Z,85.58
2018-04-11T02:14:05.380Z,85.56
2018-04-11T02:16:35.926Z,85.54
2018-04-11T02:19:07.390Z,85.33
2018-04-11T02:21:40.399Z,85.35
2018-04-11T02:24:11.358Z,85.69
2018-04-11T02:26:42.186Z,85.80
2018-04-11T02:29:12.674Z,85.85
2018-04-11T02:31:43.022Z,85.86
2018-04-11T02:34:13.883Z,85.93
2018-04-11T02:36:44.551Z,85.70
2018-04-11T02:39:15.023Z,85.84
2018-04-11T02:41:45.422Z,85.65
2018-04-11T02:44:16.584Z,85.39
2018-04-11T02:46:47.134Z,85.58
2018-04-11T02:49:17.727Z,85.67
2018-04-11T02:51:49.601Z,85.77
2018-04-11T02:54:35.603Z,85.65
2018-04-11T02:57:05.963Z,85.88
2018-04-11T02:59:52.409Z,85.94
2018-04-11T03:02:35.201Z,86.06
2018-04-11T03:06:02.562Z,85.96
2018-04-11T03:08:45.091Z,85.93
2018-04-11T03:15:16.027Z,86.16
2018-04-11T03:17:46.503Z,86.05
2018-04-11T03:20:18.371Z,86.24
2018-04-11T03:22:48.798Z,86.19
2018-04-11T03:25:27.741Z,86.02
2018-04-11T03:27:58.958Z,85.87
2018-04-11T03:30:30.157Z,85.49
2018-04-11T03:33:03.013Z,85.47
2018-04-11T03:35:34.301Z,85.21
2018-04-11T03:38:05.153Z,85.07
2018-04-11T03:40:35.553Z,85.32
2018-04-11T03:43:05.966Z,85.30
2018-04-11T03:45:36.691Z,85.27
2018-04-11T03:48:07.914Z,85.67
2018-04-11T03:50:38.331Z,85.88
2018-04-11T03:53:09.018Z,85.74
2018-04-11T03:55:39.789Z,85.63
2018-04-11T03:58:11.413Z,85.52
2018-04-11T04:00:42.098Z,85.51
2018-04-11T04:03:12.912Z,85.45
2018-04-11T04:05:43.552Z,85.60
2018-04-11T04:08:14.261Z,85.27
2018-04-11T04:10:46.580Z,85.41
2018-04-11T04:13:17.141Z,85.65
2018-04-11T04:18:00.422Z,85.50
2018-04-11T04:20:32.105Z,86.57
2018-04-11T04:23:02.563Z,86.79
2018-04-11T04:25:34.749Z,86.86
2018-04-11T04:28:05.127Z,86.34
2018-04-11T04:30:35.568Z,86.10
2018-04-11T04:33:06.035Z,86.05
2018-04-11T04:35:36.632Z,85.82
2018-04-11T04:38:07.131Z,85.43
2018-04-11T04:40:38.871Z,85.39
2018-04-11T04:43:09.715Z,85.00
2018-04-11T04:45:40.243Z,84.81
2018-04-11T04:48:11.188Z,84.62
2018-04-11T04:50:41.599Z,84.90
2018-04-11T04:53:11.991Z,84.79
2018-04-11T04:55:42.858Z,84.58
2018-04-11T04:58:13.251Z,84.85
2018-04-11T05:00:48.595Z,84.85
2018-04-11T05:03:19.235Z,84.59
2018-04-11T05:05:50.107Z,84.77
2018-04-11T05:08:20.643Z,84.78
2018-04-11T05:10:51.432Z,84.93
2018-04-11T05:13:21.931Z,85.04
2018-04-11T05:15:54.066Z,85.03
2018-04-11T05:18:24.990Z,84.75
2018-04-11T05:20:55.395Z,84.92
2018-04-11T05:23:25.994Z,84.96
2018-04-11T05:25:56.966Z,84.55
2018-04-11T05:28:27.599Z,84.63
2018-04-11T05:33:27.837Z,84.54
2018-04-11T05:35:57.011Z,84.44
2018-04-11T05:38:26.327Z,84.29
2018-04-11T05:40:55.611Z,84.68
2018-04-11T05:43:24.210Z,84.90
2018-04-11T05:45:52.820Z,84.68
2018-04-11T05:48:21.594Z,84.20
2018-04-11T05:50:51.476Z,83.91
2018-04-11T05:53:21.012Z,84.33
2018-04-11T05:55:49.606Z,84.42
2018-04-11T05:58:18.253Z,84.69
2018-04-11T06:00:47.188Z,84.57
2018-04-11T06:03:15.852Z,84.53
2018-04-11T06:05:44.589Z,84.43
2018-04-11T06:08:13.320Z,84.31
2018-04-11T06:10:42.213Z,84.18
2018-04-11T06:13:10.854Z,83.13
2018-04-11T06:18:21.262Z,83.33
2018-04-11T06:20:50.013Z,83.13
2018-04-11T06:23:19.298Z,83.12
2018-04-11T06:25:48.832Z,82.42
2018-04-11T06:28:17.869Z,81.81
2018-04-11T06:30:46.560Z,81.21
2018-04-11T06:33:15.339Z,81.04
2018-04-11T06:35:45.095Z,80.84
2018-04-11T06:38:13.819Z,80.41
2018-04-11T06:40:42.428Z,80.51
2018-04-11T06:43:11.546Z,79.64
2018-04-11T06:45:40.232Z,80.23
2018-04-11T06:48:09.383Z,78.89
2018-04-11T06:50:38.038Z,76.81
2018-04-11T06:53:08.075Z,75.77
2018-04-11T06:55:36.735Z,72.66
2018-04-11T06:58:05.519Z,72.12
2018-04-11T07:00:34.307Z,72.31
2018-04-11T07:03:03.252Z,72.87
2018-04-11T07:05:31.840Z,71.72
2018-04-11T07:08:00.532Z,71.57
2018-04-11T07:10:29.254Z,73.39
2018-04-11T07:12:59.295Z,71.70
2018-04-11T07:15:28.221Z,70.72
2018-04-11T07:17:56.915Z,69.04
2018-04-11T07:20:26.226Z,68.15
2018-04-11T07:22:54.878Z,67.20
2018-04-11T07:25:24.214Z,67.12
2018-04-11T07:27:53.189Z,66.79
2018-04-11T07:30:21.808Z,70.08
2018-04-11T07:32:51.327Z,69.29
2018-04-11T07:35:19.918Z,66.99
2018-04-11T07:37:49.886Z,69.43
2018-04-11T07:40:18.533Z,65.75
2018-04-11T07:42:47.276Z,65.22
2018-04-11T07:45:15.922Z,65.10
2018-04-11T07:47:45.859Z,64.78
2018-04-11T07:50:14.593Z,61.22
2018-04-11T07:52:43.320Z,61.58
2018-04-11T07:55:12.074Z,56.23
2018-04-11T07:57:40.958Z,57.46
2018-04-11T08:00:09.621Z,50.89
2018-04-11T08:02:38.310Z,49.68
2018-04-11T08:05:07.060Z,50.60
2018-04-11T08:07:35.935Z,48.85
2018-04-11T08:10:04.581Z,48.32
2018-04-11T08:12:33.197Z,45.35
2018-04-11T08:15:01.831Z,44.92
2018-04-11T08:17:30.515Z,40.92
2018-04-11T08:20:01.789Z,43.25
2018-04-11T08:22:30.646Z,39.74
2018-04-11T08:24:59.285Z,44.63
2018-04-11T08:27:27.880Z,41.28
2018-04-11T08:29:56.680Z,38.12
2018-04-11T08:32:25.824Z,40.63
2018-04-11T08:34:54.410Z,39.88
2018-04-11T08:37:22.964Z,38.77
2018-04-11T08:39:51.521Z,36.66
2018-04-11T08:42:20.392Z,36.84
2018-04-11T08:44:49.017Z,35.96
2018-04-11T08:47:17.644Z,34.35
2018-04-11T08:49:46.204Z,36.63
2018-04-11T08:52:15.108Z,32.80
2018-04-11T08:54:43.683Z,30.79
2018-04-11T08:57:12.292Z,31.39
2018-04-11T08:59:40.956Z,32.14
2018-04-11T09:02:10.579Z,32.18
2018-04-11T09:04:39.172Z,30.03
2018-04-11T09:07:08.049Z,32.68
2018-04-11T09:09:36.782Z,33.44
2018-04-11T09:12:05.793Z,32.27
2018-04-11T09:14:34.477Z,30.23
2018-04-11T09:17:03.089Z,33.76
2018-04-11T09:19:31.668Z,31.41
2018-04-11T09:22:00.569Z,30.03
2018-04-11T09:24:29.128Z,31.26
2018-04-11T09:26:57.800Z,31.15
2018-04-11T09:29:27.759Z,29.11
2018-04-11T09:31:56.768Z,29.42
2018-04-11T09:34:25.415Z,29.16
2018-04-11T09:36:53.972Z,29.99
2018-04-11T09:39:22.579Z,29.24
2018-04-11T09:41:51.577Z,27.78
2018-04-11T09:44:20.240Z,28.57
2018-04-11T09:46:50.156Z,28.60
2018-04-11T09:49:18.725Z,27.71
2018-04-11T09:51:47.307Z,26.13
2018-04-11T09:54:15.971Z,26.91
2018-04-11T09:56:45.048Z,28.90
2018-04-11T09:59:21.388Z,28.15
2018-04-11T10:01:50.624Z,27.60
2018-04-11T10:04:19.516Z,27.60
2018-04-11T10:06:48.309Z,25.97
2018-04-11T10:09:17.292Z,24.83
2018-04-11T10:11:46.177Z,25.01
2018-04-11T10:14:15.243Z,24.07
2018-04-11T10:16:44.949Z,25.96
2018-04-11T10:19:13.600Z,25.27
2018-04-11T10:21:51.152Z,28.44
2018-04-11T10:25:31.942Z,29.42
2018-04-11T10:28:05.583Z,29.24
2018-04-11T10:30:36.591Z,30.81
2018-04-11T10:38:09.786Z,31.60
2018-04-11T10:40:45.073Z,33.58
2018-04-11T10:43:17.589Z,34.38
2018-04-11T10:45:53.109Z,32.46
2018-04-11T10:48:25.728Z,34.16
2018-04-11T10:50:57.793Z,31.93
2018-04-11T10:53:28.237Z,32.65
2018-04-11T10:55:57.697Z,31.21
2018-04-11T10:58:26.526Z,31.52
2018-04-11T11:01:10.252Z,31.81
2018-04-11T11:03:56.291Z,32.89
2018-04-11T11:06:25.282Z,33.64
2018-04-11T11:08:53.912Z,35.24
2018-04-11T11:11:23.720Z,36.05
2018-04-11T11:13:53.438Z,34.06
2018-04-11T11:16:29.504Z,35.59
2018-04-11T11:19:03.396Z,35.26
2018-04-11T11:21:32.103Z,36.46
2018-04-11T11:24:01.073Z,35.66
2018-04-11T11:26:29.794Z,35.21
2018-04-11T11:28:59.146Z,35.82
2018-04-11T11:31:31.346Z,35.03
2018-04-11T11:34:01.582Z,33.25
2018-04-11T11:36:35.866Z,34.37
2018-04-11T11:39:05.781Z,34.29
2018-04-11T11:41:35.939Z,35.05
2018-04-11T11:44:04.690Z,36.00
2018-04-11T11:46:33.371Z,35.62
2018-04-11T11:49:01.982Z,35.23
2018-04-11T11:51:31.014Z,34.21
2018-04-11T11:53:59.827Z,35.21
2018-04-11T11:56:28.448Z,36.50
2018-04-11T11:58:57.033Z,36.21
2018-04-11T12:01:26.055Z,34.89
2018-04-11T12:03:54.644Z,34.81
2018-04-11T12:06:23.360Z,36.56
2018-04-11T12:08:51.964Z,38.45
2018-04-11T12:11:20.849Z,37.29
2018-04-11T12:13:49.782Z,36.18
2018-04-11T12:16:22.855Z,35.66
2018-04-11T12:18:52.191Z,37.18
2018-04-11T12:21:20.816Z,38.18
2018-04-11T12:23:49.781Z,37.84
2018-04-11T12:26:19.947Z,37.51
2018-04-11T12:28:50.788Z,38.63
2018-04-11T12:31:19.571Z,39.01
2018-04-11T12:33:49.257Z,34.89
2018-04-11T12:36:18.310Z,34.56
2018-04-11T12:38:47.120Z,34.11
2018-04-11T12:41:16.007Z,33.79
2018-04-11T12:43:44.714Z,34.09
2018-04-11T12:46:13.696Z,33.66
2018-04-11T12:48:43.360Z,34.40
2018-04-11T12:51:13.250Z,34.12
2018-04-11T12:53:43.677Z,35.23
2018-04-11T12:56:12.702Z,35.93
2018-04-11T12:58:41.476Z,35.04
2018-04-11T13:01:11.047Z,35.15
2018-04-11T13:03:39.901Z,34.35
2018-04-11T13:06:09.562Z,33.94
2018-04-11T13:08:38.165Z,33.47
2018-04-11T13:11:06.863Z,33.69
2018-04-11T13:13:35.709Z,33.61
2018-04-11T13:16:04.601Z,31.49
2018-04-11T13:18:33.239Z,30.85
2018-04-11T13:21:02.452Z,31.46
2018-04-11T13:23:35.582Z,31.54
2018-04-11T13:26:04.225Z,31.25
2018-04-11T13:28:34.647Z,30.16
2018-04-11T13:31:03.373Z,28.12
2018-04-11T13:33:32.535Z,28.06
2018-04-11T13:36:01.460Z,28.90
2018-04-11T13:38:30.080Z,27.07
2018-04-11T13:40:58.788Z,25.57
2018-04-11T13:43:27.788Z,24.45
2018-04-11T13:45:56.426Z,24.52
2018-04-11T13:48:25.060Z,24.32
2018-04-11T13:50:53.688Z,27.03
2018-04-11T13:53:22.654Z,25.14
2018-04-11T13:55:51.205Z,26.54
2018-04-11T13:58:19.885Z,25.03
2018-04-11T14:00:48.598Z,25.73
2018-04-11T14:03:17.953Z,23.94
2018-04-11T14:05:46.586Z,24.61
2018-04-11T14:08:15.569Z,27.02
2018-04-11T14:10:44.604Z,26.99
2018-04-11T14:13:13.484Z,26.68
2018-04-11T14:15:42.171Z,27.18
2018-04-11T14:18:11.450Z,27.78
2018-04-11T14:20:40.065Z,29.10
2018-04-11T14:23:08.959Z,31.10
2018-04-11T14:25:37.647Z,30.34
2018-04-11T14:28:06.628Z,29.90
2018-04-11T14:30:35.359Z,27.72
2018-04-11T14:33:03.986Z,25.91
2018-04-11T14:35:32.713Z,22.76
2018-04-11T14:38:01.642Z,21.68
2018-04-11T14:40:30.802Z,23.58
2018-04-11T14:42:59.450Z,23.94
2018-04-11T14:45:28.055Z,22.50
2018-04-11T14:47:58.016Z,20.50
2018-04-11T14:50:26.626Z,23.78
2018-04-11T14:52:55.314Z,24.11
2018-04-11T14:55:23.954Z,25.80
2018-04-11T14:57:52.844Z,28.85
2018-04-11T15:00:21.471Z,29.44
2018-04-11T15:02:50.240Z,30.63
2018-04-11T15:05:18.964Z,31.27
2018-04-11T15:07:47.600Z,33.10
2018-04-11T15:10:16.271Z,32.96
2018-04-11T15:12:45.172Z,32.99
2018-04-11T15:15:14.086Z,33.89
2018-04-11T15:17:42.931Z,33.53
2018-04-11T15:20:11.767Z,34.27
2018-04-11T15:22:46.148Z,33.82
2018-04-11T15:25:14.741Z,33.99
2018-04-11T15:27:43.965Z,33.87
2018-04-11T15:30:13.006Z,34.46
2018-04-11T15:32:41.989Z,34.89
2018-04-11T15:35:11.184Z,35.29
2018-04-11T15:37:39.791Z,35.78
2018-04-11T15:40:08.505Z,35.37
2018-04-11T15:42:37.321Z,36.50
2018-04-11T15:45:06.099Z,36.37
2018-04-11T15:47:35.096Z,36.39
2018-04-11T15:50:04.228Z,35.82
2018-04-11T15:52:33.125Z,31.55
2018-04-11T15:55:01.789Z,30.50
2018-04-11T15:57:30.544Z,28.98
2018-04-11T15:59:59.207Z,29.63
2018-04-11T16:02:28.186Z,30.85
2018-04-11T16:04:58.148Z,29.66
2018-04-11T16:07:26.802Z,30.18
2018-04-11T16:09:55.889Z,31.74
2018-04-11T16:12:24.638Z,33.45
2018-04-11T16:14:53.371Z,35.01
2018-04-11T16:17:22.143Z,34.73
2018-04-11T16:19:51.259Z,36.74
2018-04-11T16:22:19.920Z,37.46
2018-04-11T16:24:48.750Z,36.16
2018-04-11T16:27:20.266Z,36.72
2018-04-11T16:29:49.953Z,36.67
2018-04-11T16:32:18.606Z,36.41
2018-04-11T16:34:47.236Z,36.41
2018-04-11T16:37:15.794Z,36.52
2018-04-11T16:39:48.402Z,36.05
2018-04-11T16:42:19.004Z,35.37
2018-04-11T16:44:47.824Z,35.33
2018-04-11T16:47:16.837Z,34.78
2018-04-11T16:49:49.190Z,35.29
2018-04-11T16:52:18.962Z,35.81
2018-04-11T16:54:47.602Z,36.57
2018-04-11T16:57:17.639Z,36.66
2018-04-11T16:59:46.249Z,36.50
2018-04-11T17:02:16.252Z,36.17
2018-04-11T17:04:45.303Z,36.25
2018-04-11T17:07:16.979Z,36.16
2018-04-11T17:09:46.097Z,36.74
2018-04-11T17:12:15.964Z,36.44
2018-04-11T17:14:45.789Z,37.40
2018-04-11T17:17:15.060Z,37.76
2018-04-11T17:19:44.012Z,37.42
2018-04-11T17:22:24.040Z,38.87
2018-04-11T17:27:04.793Z,39.05
2018-04-11T17:29:44.681Z,39.27
2018-04-11T17:32:13.943Z,39.56
2018-04-11T17:34:42.938Z,40.20
2018-04-11T17:37:11.740Z,40.24
2018-04-11T17:39:41.123Z,40.11
2018-04-11T17:42:10.417Z,40.51
2018-04-11T17:44:39.702Z,40.54
2018-04-11T17:47:08.710Z,41.36
2018-04-11T17:49:39.524Z,41.23
2018-04-11T17:52:08.452Z,41.20
2018-04-11T17:54:38.290Z,41.76
2018-04-11T17:57:07.726Z,41.40
2018-04-11T17:59:40.309Z,41.81
2018-04-11T18:02:11.257Z,42.23
2018-04-11T18:04:40.753Z,42.43
2018-04-11T18:07:14.505Z,42.18
2018-04-11T18:09:45.813Z,43.03
2018-04-11T18:12:27.082Z,43.47
2018-04-11T18:14:55.758Z,43.64
2018-04-11T18:17:33.588Z,44.83
2018-04-11T18:20:11.953Z,44.33
2018-04-11T18:22:42.846Z,45.11
2018-04-11T18:25:12.681Z,44.93
2018-04-11T18:27:46.183Z,45.57
2018-04-11T18:30:15.325Z,46.27
2018-04-11T18:32:44.644Z,46.28
2018-04-11T18:35:26.729Z,46.77
2018-04-11T18:37:58.751Z,47.34
2018-04-11T18:40:29.906Z,47.98
2018-04-11T18:45:39.969Z,48.39
2018-04-11T18:48:10.487Z,49.46
2018-04-11T18:53:48.600Z,50.17
2018-04-11T18:56:17.561Z,50.16
2018-04-11T18:58:56.190Z,50.49
2018-04-11T19:01:24.921Z,50.57
2018-04-11T19:03:53.813Z,51.14
2018-04-11T19:06:22.842Z,51.25
2018-04-11T19:08:53.500Z,51.29
2018-04-11T19:11:22.308Z,50.86
2018-04-11T19:13:51.899Z,51.11
2018-04-11T19:16:21.099Z,50.63
2018-04-11T19:18:50.395Z,51.09
2018-04-11T19:21:20.372Z,51.79
2018-04-11T19:23:49.915Z,52.58
2018-04-11T19:26:18.658Z,52.64
2018-04-11T19:28:52.786Z,52.95
2018-04-11T19:31:21.904Z,53.78
2018-04-11T19:33:51.816Z,53.93
2018-04-11T19:36:21.069Z,54.43
2018-04-11T19:38:50.505Z,54.83
2018-04-11T19:41:20.743Z,55.25
2018-04-11T19:43:49.601Z,55.78
2018-04-11T19:46:18.233Z,56.59
2018-04-11T19:48:51.056Z,57.24
2018-04-11T19:51:29.849Z,56.93
2018-04-11T19:54:01.773Z,57.45
2018-04-11T19:56:31.816Z,58.46
2018-04-11T19:59:00.978Z,57.96
2018-04-11T20:01:32.365Z,58.31
2018-04-11T20:04:06.712Z,59.13
2018-04-11T20:06:35.979Z,59.63
2018-04-11T20:12:00.243Z,58.13
2018-04-11T20:14:36.187Z,58.72
2018-04-11T20:17:09.576Z,59.79
2018-04-11T20:19:41.667Z,59.94
2018-04-11T20:22:18.779Z,60.48
2018-04-11T20:24:49.491Z,60.31
2018-04-11T20:27:19.879Z,60.71
2018-04-11T20:29:50.575Z,60.19
2018-04-11T20:32:21.880Z,60.80
2018-04-11T20:34:53.159Z,61.44
2018-04-11T20:37:26.564Z,61.36
2018-04-11T20:39:57.092Z,62.06
2018-04-11T20:42:27.568Z,61.71
2018-04-11T20:44:59.027Z,62.44
2018-04-11T20:47:29.658Z,61.96
2018-04-11T20:50:01.647Z,62.37
2018-04-11T20:52:32.403Z,63.21
2018-04-11T20:55:04.107Z,62.34
2018-04-11T20:57:35.503Z,62.16
2018-04-11T21:00:06.663Z,63.18
2018-04-11T21:02:42.384Z,63.49
2018-04-11T21:05:19.284Z,63.63
2018-04-11T21:07:51.451Z,63.85
2018-04-11T21:10:24.543Z,63.94
2018-04-11T21:12:55.450Z,63.61
2018-04-11T21:15:25.891Z,63.49
2018-04-11T21:17:56.570Z,63.58
2018-04-11T21:20:27.859Z,64.08
2018-04-11T21:23:00.074Z,63.80
2018-04-11T21:25:31.053Z,63.60
2018-04-11T21:28:01.671Z,63.61
2018-04-11T21:30:32.535Z,64.04
2018-04-11T21:33:11.350Z,64.58
2018-04-11T21:35:42.417Z,64.81
2018-04-11T21:38:14.444Z,64.77
2018-04-11T21:40:45.143Z,64.88
2018-04-11T21:43:16.131Z,64.84
2018-04-11T21:45:47.424Z,64.50
2018-04-11T21:48:18.299Z,65.47
2018-04-11T21:50:48.763Z,65.75
2018-04-11T21:53:22.067Z,65.46
2018-04-11T21:55:53.470Z,65.72
2018-04-11T21:58:24.126Z,65.48
2018-04-11T22:00:55.997Z,65.70
2018-04-11T22:03:28.163Z,65.92
2018-04-11T22:06:01.172Z,66.03
2018-04-11T22:08:35.279Z,66.54
2018-04-11T22:11:05.867Z,67.47
2018-04-11T22:13:39.327Z,67.35
2018-04-11T22:16:11.703Z,67.73
2018-04-11T22:18:43.347Z,68.24
2018-04-11T22:21:15.626Z,68.25
2018-04-11T22:23:54.180Z,68.69
2018-04-11T22:26:24.523Z,68.11
2018-04-11T22:28:57.577Z,67.71
2018-04-11T22:31:28.214Z,67.42
2018-04-11T22:33:58.610Z,67.21
2018-04-11T22:36:29.307Z,67.58
2018-04-11T22:38:59.866Z,67.74
2018-04-11T22:41:30.390Z,67.91
2018-04-11T22:44:01.157Z,67.68
2018-04-11T22:46:32.074Z,68.24
2018-04-11T22:49:03.449Z,69.02
2018-04-11T22:51:39.142Z,69.86
2018-04-11T22:54:11.802Z,70.11
2018-04-11T22:56:42.329Z,69.55
2018-04-11T22:59:13.947Z,68.67
2018-04-11T23:01:50.138Z,68.49
2018-04-11T23:04:25.026Z,68.65
2018-04-11T23:06:55.866Z,69.02
2018-04-11T23:09:26.666Z,68.54
2018-04-11T23:11:57.914Z,68.97
2018-04-11T23:14:28.470Z,69.32
2018-04-11T23:16:59.482Z,69.93
2018-04-11T23:19:32.313Z,70.60
2018-04-11T23:22:03.671Z,70.78
2018-04-11T23:24:35.354Z,71.24
2018-04-11T23:27:08.754Z,71.42
2018-04-11T23:29:41.414Z,70.78
2018-04-11T23:32:12.486Z,70.74
2018-04-11T23:34:46.567Z,71.06
2018-04-11T23:37:19.875Z,70.74
2018-04-11T23:39:53.302Z,71.68
2018-04-11T23:42:23.654Z,72.09
2018-04-11T23:44:53.944Z,71.76
2018-04-11T23:47:24.298Z,71.70
2018-04-11T23:49:55.805Z,71.83
2018-04-11T23:52:27.377Z,71.12
2018-04-11T23:55:00.510Z,71.10
2018-04-11T23:57:31.957Z,71.25
